Time,TemperatureF,DewpointF,PressureIn,WindDirection,WindDirectionDegrees,WindSpeedMPH,WindSpeedGustMPH,Humidity,HourlyPrecipIn,Conditions,Clouds,dailyrainin,SolarRadiationWatts/m^2,SoftwareType,DateUTC
2013-03-23 00:04:00,50.6,45.0,29.95,NE,44,1.0,4.0,81,0.00,,,0.00,0.0,WeatherDisplay:10.37,2013-03-22 23:04:00,
2013-03-23 00:09:00,50.7,45.1,29.95,NNE,23,2.3,2.3,81,0.00,,,0.00,0.0,WeatherDisplay:10.37,2013-03-22 23:09:00,
2013-03-23 00:14:00,50.7,45.1,29.95,ENE,59,2.0,2.0,81,0.00,,,0.00,0.0,WeatherDisplay:10.37,2013-03-22 23:14:00,
2013-03-23 00:19:00,50.7,45.1,29.95,WSW,242,1.0,3.0,81,0.00,,,0.00,0.0,WeatherDisplay:10.37,2013-03-22 23:19:00,
2013-03-23 00:24:00,50.7,45.1,29.95,SW,217,1.0,2.0,81,0.00,,,0.00,0.0,WeatherDisplay:10.37,2013-03-22 23:24:00,
2013-03-23 00:29:00,50.7,45.1,29.95,WSW,240,2.3,2.3,81,0.00,,,0.00,0.0,WeatherDisplay:10.37,2013-03-22 23:29:00,
2013-03-23 00:34:00,50.5,44.9,29.95,SW,225,0.0,4.0,81,0.00,,,0.00,0.0,WeatherDisplay:10.37,2013-03-22 23:34:00,
2013-03-23 00:39:00,50.5,44.9,29.95,SSW,204,3.5,3.5,81,0.00,,,0.00,0.0,WeatherDisplay:10.37,2013-03-22 23:39:00,
2013-03-23 00:44:00,50.4,44.8,29.95,WNW,292,1.2,1.2,81,0.00,,,0.00,0.0,WeatherDisplay:10.37,2013-03-22 23:44:00,
2013-03-23 00:49:00,50.4,45.1,29.95,WNW,296,1.0,3.0,82,0.00,,,0.00,0.0,WeatherDisplay:10.37,2013-03-22 23:49:00,
2013-03-23 00:54:00,50.4,45.1,29.95,WNW,287,2.3,2.3,82,0.00,,,0.00,0.0,WeatherDisplay:10.37,2013-03-22 23:54:00,
2013-03-23 00:59:00,50.4,45.1,29.95,SSW,208,2.3,2.3,82,0.00,,,0.00,0.0,WeatherDisplay:10.37,2013-03-22 23:59:00,
2013-03-23 01:05:00,50.4,45.1,29.95,ESE,105,1.0,2.0,82,0.00,CLR,,0.00,0.0,WeatherDisplay:10.37,2013-03-23 00:05:00,
2013-03-23 01:15:00,50.3,45.0,29.95,SE,137,1.0,3.0,82,0.00,CLR,,0.00,0.0,WeatherDisplay:10.37,2013-03-23 00:15:00,
2013-03-23 01:20:00,50.1,45.1,29.95,SW,236,1.0,2.0,83,0.00,CLR,,0.00,0.0,WeatherDisplay:10.37,2013-03-23 00:20:00,
2013-03-23 01:25:00,49.9,44.9,29.95,WSW,248,0.0,2.0,83,0.00,CLR,,0.00,0.0,WeatherDisplay:10.37,2013-03-23 00:25:00,
2013-03-23 01:30:00,49.8,44.8,29.95,SW,227,1.0,3.0,83,0.00,CLR,,0.00,0.0,WeatherDisplay:10.37,2013-03-23 00:30:00,
2013-03-23 01:35:00,49.8,45.2,29.95,SSW,213,1.0,2.0,84,0.00,CLR,,0.00,0.0,WeatherDisplay:10.37,2013-03-23 00:35:00,
2013-03-23 01:40:00,49.8,45.2,29.96,SW,225,1.0,3.0,84,0.00,CLR,,0.00,0.0,WeatherDisplay:10.37,2013-03-23 00:40:00,
2013-03-23 01:45:00,49.8,45.2,29.96,SW,236,1.0,3.0,84,0.00,CLR,,0.00,0.0,WeatherDisplay:10.37,2013-03-23 00:45:00,
2013-03-23 01:50:00,49.8,45.2,29.96,NNE,25,2.0,4.0,84,0.00,CLR,,0.00,0.0,WeatherDisplay:10.37,2013-03-23 00:50:00,
2013-03-23 01:55:00,49.9,45.3,29.96,NE,45,1.0,4.0,84,0.00,CLR,,0.00,0.0,WeatherDisplay:10.37,2013-03-23 00:55:00,
2013-03-23 02:00:00,50.0,45.4,29.96,NE,45,0.0,2.0,84,0.00,CLR,,0.00,0.0,WeatherDisplay:10.37,2013-03-23 01:00:00,
2013-03-23 02:05:00,50.1,45.5,29.95,NE,45,0.0,2.0,84,0.00,CLR,,0.00,0.0,WeatherDisplay:10.37,2013-03-23 01:05:00,
2013-03-23 02:10:00,49.9,45.3,29.95,NE,45,0.0,2.0,84,0.00,CLR,,0.00,0.0,WeatherDisplay:10.37,2013-03-23 01:10:00,
2013-03-23 02:15:00,49.7,45.1,29.95,ESE,103,1.0,3.0,84,0.00,CLR,,0.00,0.0,WeatherDisplay:10.37,2013-03-23 01:15:00,
2013-03-23 02:20:00,49.5,44.9,29.95,SSW,202,1.0,2.0,84,0.00,CLR,,0.00,0.0,WeatherDisplay:10.37,2013-03-23 01:20:00,
2013-03-23 02:25:00,49.3,44.7,29.95,SW,225,0.0,2.0,84,0.00,CLR,,0.00,0.0,WeatherDisplay:10.37,2013-03-23 01:25:00,
2013-03-23 02:30:00,49.2,44.6,29.95,WSW,246,1.0,3.0,84,0.00,CLR,,0.00,0.0,WeatherDisplay:10.37,2013-03-23 01:30:00,
2013-03-23 02:35:00,49.2,44.9,29.95,West,270,0.0,2.0,85,0.00,CLR,,0.00,0.0,WeatherDisplay:10.37,2013-03-23 01:35:00,
2013-03-23 02:40:00,49.0,44.4,29.94,WSW,249,1.0,2.0,84,0.00,CLR,,0.00,0.0,WeatherDisplay:10.37,2013-03-23 01:40:00,
2013-03-23 02:45:00,48.7,44.1,29.94,SW,236,1.0,3.0,84,0.00,CLR,,0.00,0.0,WeatherDisplay:10.37,2013-03-23 01:45:00,
2013-03-23 02:50:00,48.4,44.1,29.94,SSE,158,1.0,4.0,85,0.00,CLR,,0.00,0.0,WeatherDisplay:10.37,2013-03-23 01:50:00,
2013-03-23 02:55:00,48.3,44.0,29.94,SSE,147,1.0,2.0,85,0.00,CLR,,0.00,0.0,WeatherDisplay:10.37,2013-03-23 01:55:00,
2013-03-23 03:00:00,48.3,44.3,29.94,SW,225,1.0,3.0,86,0.00,CLR,,0.00,0.0,WeatherDisplay:10.37,2013-03-23 02:00:00,
2013-03-23 03:05:00,48.4,44.4,29.94,SSW,213,1.0,3.0,86,0.00,CLR,,0.00,0.0,WeatherDisplay:10.37,2013-03-23 02:05:00,
2013-03-23 03:10:00,48.4,44.4,29.94,SSW,213,1.0,3.0,86,0.00,CLR,,0.00,0.0,WeatherDisplay:10.37,2013-03-23 02:10:00,
2013-03-23 03:15:00,48.5,44.5,29.94,WSW,247,1.0,2.0,86,0.00,CLR,,0.00,0.0,WeatherDisplay:10.37,2013-03-23 02:15:00,
2013-03-23 03:20:00,48.5,44.5,29.94,WSW,247,1.0,3.0,86,0.00,CLR,,0.00,0.0,WeatherDisplay:10.37,2013-03-23 02:20:00,
2013-03-23 03:25:00,48.4,44.4,29.94,SE,135,1.0,4.0,86,0.00,CLR,,0.00,0.0,WeatherDisplay:10.37,2013-03-23 02:25:00,
2013-03-23 03:30:00,48.5,44.5,29.93,SE,135,1.0,3.0,86,0.00,CLR,,0.00,0.0,WeatherDisplay:10.37,2013-03-23 02:30:00,
2013-03-23 03:35:00,48.5,44.5,29.94,SSW,213,1.0,3.0,86,0.00,CLR,,0.00,0.0,WeatherDisplay:10.37,2013-03-23 02:35:00,
2013-03-23 03:40:00,48.4,44.4,29.94,SW,217,2.0,4.0,86,0.00,CLR,,0.00,0.0,WeatherDisplay:10.37,2013-03-23 02:40:00,
2013-03-23 03:45:00,48.4,44.7,29.94,SW,225,2.0,3.0,87,0.00,CLR,,0.00,0.0,WeatherDisplay:10.37,2013-03-23 02:45:00,
2013-03-23 03:50:00,48.6,44.9,29.94,SW,225,2.0,3.0,87,0.00,CLR,,0.00,0.0,WeatherDisplay:10.37,2013-03-23 02:50:00,
2013-03-23 03:55:00,48.9,45.2,29.94,SW,225,1.0,3.0,87,0.00,CLR,,0.00,0.0,WeatherDisplay:10.37,2013-03-23 02:55:00,
2013-03-23 04:00:00,48.9,45.2,29.94,SW,225,2.0,3.0,87,0.00,CLR,,0.00,0.0,WeatherDisplay:10.37,2013-03-23 03:00:00,
2013-03-23 04:05:00,48.9,45.2,29.94,SW,225,1.0,2.0,87,0.00,CLR,,0.00,0.0,WeatherDisplay:10.37,2013-03-23 03:05:00,
2013-03-23 04:10:00,48.9,45.2,29.94,NE,45,2.0,4.0,87,0.00,CLR,,0.00,0.0,WeatherDisplay:10.37,2013-03-23 03:10:00,
2013-03-23 04:15:00,49.0,45.3,29.94,NNW,327,2.0,5.0,87,0.00,CLR,,0.00,0.0,WeatherDisplay:10.37,2013-03-23 03:15:00,
2013-03-23 04:20:00,49.0,45.3,29.94,SSW,203,2.0,5.0,87,0.00,CLR,,0.00,0.0,WeatherDisplay:10.37,2013-03-23 03:20:00,
2013-03-23 04:25:00,49.1,45.1,29.94,South,191,2.0,4.0,86,0.00,CLR,,0.00,0.0,WeatherDisplay:10.37,2013-03-23 03:25:00,
2013-03-23 04:30:00,48.9,44.9,29.94,SW,225,1.0,3.0,86,0.00,CLR,,0.00,0.0,WeatherDisplay:10.37,2013-03-23 03:30:00,
2013-03-23 04:35:00,48.7,44.7,29.94,NE,45,2.0,5.0,86,0.00,CLR,,0.00,0.0,WeatherDisplay:10.37,2013-03-23 03:35:00,
2013-03-23 04:40:00,48.5,44.5,29.93,NE,45,1.0,3.0,86,0.00,CLR,,0.00,0.0,WeatherDisplay:10.37,2013-03-23 03:40:00,
2013-03-23 04:45:00,48.5,44.5,29.93,SW,225,1.0,3.0,86,0.00,CLR,,0.00,0.0,WeatherDisplay:10.37,2013-03-23 03:45:00,
2013-03-23 04:50:00,48.4,44.7,29.93,SW,225,1.0,3.0,87,0.00,CLR,,0.00,0.0,WeatherDisplay:10.37,2013-03-23 03:50:00,
2013-03-23 04:55:00,48.3,44.6,29.93,SW,225,1.0,3.0,87,0.00,CLR,,0.00,0.0,WeatherDisplay:10.37,2013-03-23 03:55:00,
2013-03-23 05:00:00,48.1,44.4,29.93,SW,225,0.0,3.0,87,0.00,CLR,,0.00,0.0,WeatherDisplay:10.37,2013-03-23 04:00:00,
2013-03-23 05:05:00,47.9,44.2,29.93,SW,214,1.0,2.0,87,0.00,CLR,,0.00,0.0,WeatherDisplay:10.37,2013-03-23 04:05:00,
2013-03-23 05:10:00,47.7,44.0,29.93,ESE,120,2.0,6.0,87,0.00,CLR,,0.00,0.0,WeatherDisplay:10.37,2013-03-23 04:10:00,
2013-03-23 05:15:00,47.2,43.5,29.93,East,90,3.0,7.0,87,0.00,CLR,,0.00,0.0,WeatherDisplay:10.37,2013-03-23 04:15:00,
2013-03-23 05:20:00,46.8,43.4,29.93,East,90,2.0,6.0,88,0.00,CLR,,0.00,0.0,WeatherDisplay:10.37,2013-03-23 04:20:00,
2013-03-23 05:25:00,46.7,43.3,29.92,East,97,1.0,4.0,88,0.00,CLR,,0.00,0.0,WeatherDisplay:10.37,2013-03-23 04:25:00,
2013-03-23 05:30:00,46.6,43.2,29.93,South,169,1.0,3.0,88,0.00,CLR,,0.00,0.0,WeatherDisplay:10.37,2013-03-23 04:30:00,
2013-03-23 05:35:00,46.7,43.6,29.93,SW,225,0.0,2.0,89,0.00,CLR,,0.00,0.0,WeatherDisplay:10.37,2013-03-23 04:35:00,
2013-03-23 05:40:00,46.8,43.7,29.92,SW,225,0.0,2.0,89,0.00,CLR,,0.00,0.0,WeatherDisplay:10.37,2013-03-23 04:40:00,
2013-03-23 05:45:00,46.8,43.4,29.93,SW,225,0.0,2.0,88,0.00,CLR,,0.00,0.0,WeatherDisplay:10.37,2013-03-23 04:45:00,
2013-03-23 05:50:00,46.7,43.6,29.93,SSE,165,1.0,3.0,89,0.00,CLR,,0.00,0.0,WeatherDisplay:10.37,2013-03-23 04:50:00,
2013-03-23 05:55:00,46.7,43.6,29.93,ENE,68,0.0,2.0,89,0.00,CLR,,0.00,0.0,WeatherDisplay:10.37,2013-03-23 04:55:00,
2013-03-23 06:00:00,46.7,43.6,29.93,ENE,78,1.0,2.0,89,0.00,CLR,,0.00,0.0,WeatherDisplay:10.37,2013-03-23 05:00:00,
2013-03-23 06:05:00,46.7,43.6,29.93,East,90,1.0,4.0,89,0.00,CLR,,0.00,1.0,WeatherDisplay:10.37,2013-03-23 05:05:00,
2013-03-23 06:10:00,46.7,43.6,29.93,East,90,1.0,2.0,89,0.00,CLR,,0.00,7.0,WeatherDisplay:10.37,2013-03-23 05:10:00,
2013-03-23 06:15:00,46.6,43.5,29.93,East,90,0.0,2.0,89,0.00,CLR,,0.00,10.0,WeatherDisplay:10.37,2013-03-23 05:15:00,
2013-03-23 06:20:00,46.8,43.7,29.93,East,90,0.0,2.0,89,0.00,CLR,,0.00,15.0,WeatherDisplay:10.37,2013-03-23 05:20:00,
2013-03-23 06:25:00,47.1,44.0,29.93,East,90,0.0,2.0,89,0.00,CLR,,0.00,23.0,WeatherDisplay:10.37,2013-03-23 05:25:00,
2013-03-23 06:30:00,47.4,44.3,29.93,East,90,0.0,2.0,89,0.00,CLR,,0.00,32.0,WeatherDisplay:10.37,2013-03-23 05:30:00,
2013-03-23 06:35:00,47.5,44.4,29.94,East,90,0.0,1.0,89,0.00,CLR,,0.00,42.0,WeatherDisplay:10.37,2013-03-23 05:35:00,
2013-03-23 06:40:00,47.7,44.6,29.94,East,90,0.0,1.0,89,0.00,CLR,,0.00,54.0,WeatherDisplay:10.37,2013-03-23 05:40:00,
2013-03-23 06:45:00,47.9,44.5,29.93,East,90,0.0,2.0,88,0.00,CLR,,0.00,65.0,WeatherDisplay:10.37,2013-03-23 05:45:00,
2013-03-23 06:50:00,48.1,44.7,29.94,ENE,59,1.0,5.0,88,0.00,CLR,,0.00,76.0,WeatherDisplay:10.37,2013-03-23 05:50:00,
2013-03-23 06:55:00,48.9,45.5,29.94,NNE,22,3.0,6.0,88,0.00,CLR,,0.00,91.0,WeatherDisplay:10.37,2013-03-23 05:55:00,
2013-03-23 07:00:00,49.8,45.8,29.94,NNE,17,1.0,3.0,86,0.00,CLR,,0.00,106.0,WeatherDisplay:10.37,2013-03-23 06:00:00,
2013-03-23 07:05:00,50.4,46.4,29.94,NNE,23,1.0,3.0,86,0.00,CLR,,0.00,126.0,WeatherDisplay:10.37,2013-03-23 06:05:00,
2013-03-23 07:10:00,50.8,46.5,29.94,NE,45,1.0,3.0,85,0.00,CLR,,0.00,142.0,WeatherDisplay:10.37,2013-03-23 06:10:00,
2013-03-23 07:15:00,51.4,47.0,29.94,ENE,57,1.0,3.0,85,0.00,CLR,,0.00,163.0,WeatherDisplay:10.37,2013-03-23 06:15:00,
2013-03-23 07:20:00,51.9,47.2,29.94,ENE,57,1.0,3.0,84,0.00,CLR,,0.00,183.0,WeatherDisplay:10.37,2013-03-23 06:20:00,
2013-03-23 07:25:00,52.1,46.8,29.94,NE,45,1.0,5.0,82,0.00,CLR,,0.00,195.0,WeatherDisplay:10.37,2013-03-23 06:25:00,
2013-03-23 07:30:00,51.7,46.4,29.94,ENE,68,1.0,4.0,82,0.00,CLR,,0.00,212.0,WeatherDisplay:10.37,2013-03-23 06:30:00,
2013-03-23 07:35:00,51.4,46.1,29.94,East,90,1.0,5.0,82,0.00,CLR,,0.00,237.0,WeatherDisplay:10.37,2013-03-23 06:35:00,
2013-03-23 07:40:00,51.3,46.0,29.94,East,90,1.0,5.0,82,0.00,CLR,,0.00,240.0,WeatherDisplay:10.37,2013-03-23 06:40:00,
2013-03-23 07:45:00,51.1,46.1,29.94,East,101,1.0,4.0,83,0.00,CLR,,0.00,240.0,WeatherDisplay:10.37,2013-03-23 06:45:00,
2013-03-23 07:50:00,51.1,46.1,29.93,SE,124,1.0,3.0,83,0.00,CLR,,0.00,268.0,WeatherDisplay:10.37,2013-03-23 06:50:00,
2013-03-23 07:55:00,51.4,46.4,29.93,SE,124,1.0,3.0,83,0.00,CLR,,0.00,296.0,WeatherDisplay:10.37,2013-03-23 06:55:00,
2013-03-23 08:00:00,51.7,46.7,29.94,ESE,112,1.0,4.0,83,0.00,OVC,,0.00,304.0,WeatherDisplay:10.37,2013-03-23 07:00:00,
2013-03-23 08:05:00,52.0,47.0,29.94,East,97,2.0,5.0,83,0.00,OVC,,0.00,313.0,WeatherDisplay:10.37,2013-03-23 07:05:00,
2013-03-23 08:10:00,52.3,47.3,29.94,East,97,1.0,4.0,83,0.00,OVC,,0.00,335.0,WeatherDisplay:10.37,2013-03-23 07:10:00,
2013-03-23 08:15:00,52.7,47.4,29.93,ESE,112,2.0,5.0,82,0.00,OVC,,0.00,352.0,WeatherDisplay:10.37,2013-03-23 07:15:00,
2013-03-23 08:20:00,52.8,47.1,29.94,ESE,112,3.0,4.0,81,0.00,OVC,,0.00,372.0,WeatherDisplay:10.37,2013-03-23 07:20:00,
2013-03-23 08:25:00,52.7,47.4,29.94,ESE,112,3.0,5.0,82,0.00,OVC,,0.00,392.0,WeatherDisplay:10.37,2013-03-23 07:25:00,
2013-03-23 08:30:00,53.0,47.3,29.93,ESE,112,3.0,5.0,81,0.00,OVC,,0.00,383.0,WeatherDisplay:10.37,2013-03-23 07:30:00,
2013-03-23 08:35:00,53.2,47.5,29.93,East,101,3.0,5.0,81,0.00,OVC,,0.00,415.0,WeatherDisplay:10.37,2013-03-23 07:35:00,
2013-03-23 08:40:00,53.5,47.8,29.93,East,90,3.0,6.0,81,0.00,OVC,,0.00,416.0,WeatherDisplay:10.37,2013-03-23 07:40:00,
2013-03-23 08:45:00,53.6,47.6,29.93,East,101,3.0,6.0,80,0.00,OVC,,0.00,441.0,WeatherDisplay:10.37,2013-03-23 07:45:00,
2013-03-23 08:50:00,54.0,48.0,29.93,SSW,196,3.0,7.0,80,0.00,OVC,,0.00,478.0,WeatherDisplay:10.37,2013-03-23 07:50:00,
2013-03-23 08:55:00,54.0,48.0,29.93,ESE,112,3.0,7.0,80,0.00,OVC,,0.00,478.0,WeatherDisplay:10.37,2013-03-23 07:55:00,
2013-03-23 09:00:00,54.1,47.7,29.93,ESE,120,3.0,8.0,79,0.00,OVC,,0.00,493.0,WeatherDisplay:10.37,2013-03-23 08:00:00,
2013-03-23 09:06:00,55.1,47.7,29.93,ESE,107,5.0,5.0,76,0.00,CLR,,0.00,517.0,WeatherDisplay:10.37,2013-03-23 08:06:00,
2013-03-23 09:07:00,55.2,47.8,29.93,ESE,107,4.6,4.6,76,0.00,CLR,,0.00,517.0,WeatherDisplay:10.37,2013-03-23 08:07:00,
2013-03-23 09:12:00,55.6,47.8,29.93,SSW,193,2.3,2.3,75,0.00,CLR,,0.00,541.0,WeatherDisplay:10.37,2013-03-23 08:12:00,
2013-03-23 09:17:00,56.0,47.5,29.93,SSE,164,3.5,3.5,73,0.00,CLR,,0.00,552.0,WeatherDisplay:10.37,2013-03-23 08:17:00,
2013-03-23 09:22:00,56.3,47.4,29.93,East,98,5.8,5.8,72,0.00,CLR,,0.00,564.0,WeatherDisplay:10.37,2013-03-23 08:22:00,
2013-03-23 09:27:00,56.5,47.9,29.93,ESE,102,3.5,3.5,73,0.00,CLR,,0.00,568.0,WeatherDisplay:10.37,2013-03-23 08:27:00,
2013-03-23 09:32:00,56.6,46.9,29.94,SSW,210,2.3,2.3,70,0.00,CLR,,0.00,584.0,WeatherDisplay:10.37,2013-03-23 08:32:00,
2013-03-23 09:37:00,57.3,47.6,29.94,ESE,107,4.6,4.6,70,0.00,CLR,,0.00,591.0,WeatherDisplay:10.37,2013-03-23 08:37:00,
2013-03-23 09:42:00,56.8,47.1,29.94,SSW,196,6.9,6.9,70,0.00,CLR,,0.00,603.0,WeatherDisplay:10.37,2013-03-23 08:42:00,
2013-03-23 09:47:00,56.4,47.9,29.94,NE,49,3.5,3.5,73,0.00,CLR,,0.00,621.0,WeatherDisplay:10.37,2013-03-23 08:47:00,
2013-03-23 09:52:00,56.7,47.4,29.94,WNW,302,5.8,5.8,71,0.00,CLR,,0.00,622.0,WeatherDisplay:10.37,2013-03-23 08:52:00,
2013-03-23 09:57:00,56.8,47.9,29.94,WNW,290,5.8,5.8,72,0.00,CLR,,0.00,636.0,WeatherDisplay:10.37,2013-03-23 08:57:00,
2013-03-23 10:02:00,57.1,48.2,29.94,SW,218,6.0,6.0,72,0.00,CLR,,0.00,647.0,WeatherDisplay:10.37,2013-03-23 09:02:00,
2013-03-23 10:07:00,56.2,47.3,29.94,WNW,292,9.2,9.2,72,0.00,CLR,,0.00,654.0,WeatherDisplay:10.37,2013-03-23 09:07:00,
2013-03-23 10:12:00,55.3,46.8,29.94,SW,236,6.9,6.9,73,0.00,CLR,,0.00,661.0,WeatherDisplay:10.37,2013-03-23 09:12:00,
2013-03-23 10:17:00,55.8,47.3,29.94,South,191,5.8,5.8,73,0.00,CLR,,0.00,675.0,WeatherDisplay:10.37,2013-03-23 09:17:00,
2013-03-23 10:22:00,56.0,47.1,29.94,WNW,287,5.0,5.0,72,0.00,CLR,,0.00,680.0,WeatherDisplay:10.37,2013-03-23 09:22:00,
2013-03-23 10:27:00,56.4,47.1,29.94,WSW,248,4.6,4.6,71,0.00,CLR,,0.00,673.0,WeatherDisplay:10.37,2013-03-23 09:27:00,
2013-03-23 10:32:00,56.9,47.6,29.93,SSW,213,3.0,3.0,71,0.00,CLR,,0.00,694.0,WeatherDisplay:10.37,2013-03-23 09:32:00,
2013-03-23 10:37:00,57.4,47.7,29.93,WSW,258,2.3,2.3,70,0.00,CLR,,0.00,712.0,WeatherDisplay:10.37,2013-03-23 09:37:00,
2013-03-23 10:42:00,57.8,48.1,29.93,WSW,253,8.0,8.0,70,0.00,CLR,,0.00,714.0,WeatherDisplay:10.37,2013-03-23 09:42:00,
2013-03-23 10:47:00,57.5,47.8,29.93,West,259,9.2,9.2,70,0.00,CLR,,0.00,724.0,WeatherDisplay:10.37,2013-03-23 09:47:00,
2013-03-23 10:52:00,57.6,47.1,29.93,West,265,9.2,9.2,68,0.00,CLR,,0.00,708.0,WeatherDisplay:10.37,2013-03-23 09:52:00,
2013-03-23 10:57:00,57.7,47.2,29.93,West,262,8.1,8.1,68,0.00,CLR,,0.00,712.0,WeatherDisplay:10.37,2013-03-23 09:57:00,
2013-03-23 11:02:00,57.3,47.2,29.93,West,271,11.0,11.0,69,0.00,CLR,,0.00,733.0,WeatherDisplay:10.37,2013-03-23 10:02:00,
2013-03-23 11:07:00,57.4,46.5,29.93,South,169,10.4,10.4,67,0.00,CLR,,0.00,693.0,WeatherDisplay:10.37,2013-03-23 10:07:00,
2013-03-23 11:12:00,56.8,46.3,29.93,WSW,237,11.5,11.5,68,0.00,CLR,,0.00,721.0,WeatherDisplay:10.37,2013-03-23 10:12:00,
2013-03-23 11:17:00,57.0,46.9,29.93,WSW,250,6.9,6.9,69,0.00,CLR,,0.00,731.0,WeatherDisplay:10.37,2013-03-23 10:17:00,
2013-03-23 11:22:00,57.1,47.0,29.93,NNE,19,9.2,9.2,69,0.00,CLR,,0.00,761.0,WeatherDisplay:10.37,2013-03-23 10:22:00,
2013-03-23 11:27:00,57.0,46.5,29.92,WSW,248,10.4,10.4,68,0.00,CLR,,0.00,765.0,WeatherDisplay:10.37,2013-03-23 10:27:00,
2013-03-23 11:32:00,57.4,46.9,29.92,West,261,7.0,7.0,68,0.00,CLR,,0.00,761.0,WeatherDisplay:10.37,2013-03-23 10:32:00,
2013-03-23 11:37:00,58.0,47.1,29.92,SW,225,11.5,11.5,67,0.00,CLR,,0.00,729.0,WeatherDisplay:10.37,2013-03-23 10:37:00,
2013-03-23 11:42:00,58.1,47.2,29.92,WSW,244,8.1,8.1,67,0.00,CLR,,0.00,694.0,WeatherDisplay:10.37,2013-03-23 10:42:00,
2013-03-23 11:47:00,58.0,46.7,29.91,WSW,238,10.4,10.4,66,0.00,CLR,,0.00,717.0,WeatherDisplay:10.37,2013-03-23 10:47:00,
2013-03-23 11:52:00,58.1,47.6,29.91,NW,318,11.5,11.5,68,0.00,CLR,,0.00,738.0,WeatherDisplay:10.37,2013-03-23 10:52:00,
2013-03-23 11:57:00,58.0,47.1,29.91,SW,214,8.1,8.1,67,0.00,CLR,,0.00,728.0,WeatherDisplay:10.37,2013-03-23 10:57:00,
2013-03-23 12:02:00,58.2,46.9,29.91,WNW,288,8.0,8.0,66,0.00,FEW,,0.00,744.0,WeatherDisplay:10.37,2013-03-23 11:02:00,
2013-03-23 12:07:00,58.6,47.3,29.91,SSW,199,5.8,5.8,66,0.00,CLR,,0.00,758.0,WeatherDisplay:10.37,2013-03-23 11:07:00,
2013-03-23 12:12:00,59.1,47.3,29.91,NNE,25,5.8,5.8,65,0.00,FEW,,0.00,721.0,WeatherDisplay:10.37,2013-03-23 11:12:00,
2013-03-23 12:17:00,59.1,47.3,29.90,WNW,286,8.1,8.1,65,0.00,FEW,,0.00,738.0,WeatherDisplay:10.37,2013-03-23 11:17:00,
2013-03-23 12:22:00,59.1,46.9,29.90,SSE,154,4.6,5.3,64,0.00,FEW,,0.00,735.0,WeatherDisplay:10.37,2013-03-23 11:22:00,
2013-03-23 12:27:00,58.9,46.3,29.90,SW,230,9.2,9.2,63,0.00,CLR,,0.00,766.0,WeatherDisplay:10.37,2013-03-23 11:27:00,
2013-03-23 12:32:00,58.5,46.8,29.90,WSW,247,6.9,6.9,65,0.00,CLR,,0.00,717.0,WeatherDisplay:10.37,2013-03-23 11:32:00,
2013-03-23 12:37:00,58.7,47.0,29.90,SW,234,10.4,10.4,65,0.00,CLR,,0.00,635.0,WeatherDisplay:10.37,2013-03-23 11:37:00,
2013-03-23 12:42:00,58.3,46.6,29.90,WSW,238,13.8,13.8,65,0.00,FEW,,0.00,758.0,WeatherDisplay:10.37,2013-03-23 11:42:00,
2013-03-23 12:47:00,58.2,46.9,29.90,West,278,10.4,10.4,66,0.00,FEW,,0.00,661.0,WeatherDisplay:10.37,2013-03-23 11:47:00,
2013-03-23 12:52:00,57.9,47.0,29.89,WNW,292,12.7,12.7,67,0.00,CLR,,0.00,733.0,WeatherDisplay:10.37,2013-03-23 11:52:00,
2013-03-23 12:57:00,58.3,47.4,29.90,West,261,11.5,11.5,67,0.00,CLR,,0.00,754.0,WeatherDisplay:10.37,2013-03-23 11:57:00,
2013-03-23 13:02:00,58.4,47.1,29.89,NNW,346,11.5,11.5,66,0.00,CLR,,0.00,745.0,WeatherDisplay:10.37,2013-03-23 12:02:00,
2013-03-23 13:08:00,58.7,47.4,29.89,WSW,257,11.0,11.0,66,0.00,CLR,,0.00,719.0,WeatherDisplay:10.37,2013-03-23 12:08:00,
2013-03-23 13:13:00,58.7,47.0,29.89,WNW,284,11.5,11.5,65,0.00,CLR,,0.00,691.0,WeatherDisplay:10.37,2013-03-23 12:13:00,
2013-03-23 13:18:00,59.3,47.5,29.89,West,264,10.4,10.4,65,0.00,CLR,,0.00,675.0,WeatherDisplay:10.37,2013-03-23 12:18:00,
2013-03-23 13:23:00,59.5,47.3,29.89,West,269,9.2,9.2,64,0.00,CLR,,0.00,700.0,WeatherDisplay:10.37,2013-03-23 12:23:00,
2013-03-23 13:28:00,59.4,46.8,29.88,WNW,297,10.4,10.4,63,0.00,CLR,,0.00,707.0,WeatherDisplay:10.37,2013-03-23 12:28:00,
2013-03-23 13:33:00,59.3,46.3,29.88,WSW,256,11.5,11.5,62,0.00,CLR,,0.00,687.0,WeatherDisplay:10.37,2013-03-23 12:33:00,
2013-03-23 13:38:00,59.6,47.0,29.88,WSW,240,9.2,9.2,63,0.00,CLR,,0.00,680.0,WeatherDisplay:10.37,2013-03-23 12:38:00,
2013-03-23 13:43:00,59.9,46.4,29.88,West,267,10.4,10.4,61,0.00,CLR,,0.00,686.0,WeatherDisplay:10.37,2013-03-23 12:43:00,
2013-03-23 13:48:00,60.0,47.4,29.88,South,170,11.5,11.5,63,0.00,CLR,,0.00,654.0,WeatherDisplay:10.37,2013-03-23 12:48:00,
2013-03-23 13:53:00,60.0,46.9,29.88,West,261,10.4,10.4,62,0.00,CLR,,0.00,650.0,WeatherDisplay:10.37,2013-03-23 12:53:00,
2013-03-23 13:58:00,59.9,47.3,29.88,SW,233,10.4,10.4,63,0.00,CLR,,0.00,626.0,WeatherDisplay:10.37,2013-03-23 12:58:00,
2013-03-23 14:03:00,59.5,46.9,29.87,West,272,11.5,11.5,63,0.00,CLR,,0.00,663.0,WeatherDisplay:10.37,2013-03-23 13:03:00,
2013-03-23 14:08:00,59.2,47.0,29.87,West,259,11.5,11.5,64,0.00,CLR,,0.00,606.0,WeatherDisplay:10.37,2013-03-23 13:08:00,
2013-03-23 14:13:00,60.0,47.8,29.87,WSW,238,11.5,11.5,64,0.00,CLR,,0.00,603.0,WeatherDisplay:10.37,2013-03-23 13:13:00,
2013-03-23 14:18:00,59.6,47.4,29.87,SW,228,13.8,13.8,64,0.00,CLR,,0.00,612.0,WeatherDisplay:10.37,2013-03-23 13:18:00,
2013-03-23 14:23:00,59.5,47.7,29.86,SW,235,11.5,11.5,65,0.00,CLR,,0.00,536.0,WeatherDisplay:10.37,2013-03-23 13:23:00,
2013-03-23 14:28:00,60.3,48.1,29.86,WSW,240,10.0,10.0,64,0.00,CLR,,0.00,578.0,WeatherDisplay:10.37,2013-03-23 13:28:00,
2013-03-23 14:33:00,60.4,47.3,29.86,West,261,10.4,10.4,62,0.00,CLR,,0.00,612.0,WeatherDisplay:10.37,2013-03-23 13:33:00,
2013-03-23 14:38:00,60.2,47.1,29.86,WNW,299,9.2,9.2,62,0.00,CLR,,0.00,610.0,WeatherDisplay:10.37,2013-03-23 13:38:00,
2013-03-23 14:43:00,60.2,46.3,29.85,WSW,257,8.1,8.1,60,0.00,CLR,,0.00,587.0,WeatherDisplay:10.37,2013-03-23 13:43:00,
2013-03-23 14:48:00,61.2,46.8,29.85,West,267,7.0,7.0,59,0.00,CLR,,0.00,575.0,WeatherDisplay:10.37,2013-03-23 13:48:00,
2013-03-23 14:53:00,61.3,46.4,29.85,NW,304,8.1,8.1,58,0.00,CLR,,0.00,577.0,WeatherDisplay:10.37,2013-03-23 13:53:00,
2013-03-23 14:58:00,61.4,45.6,29.85,West,262,11.5,11.5,56,0.00,CLR,,0.00,555.0,WeatherDisplay:10.37,2013-03-23 13:58:00,
2013-03-23 15:03:00,61.1,45.7,29.85,West,269,11.5,11.5,57,0.00,CLR,,0.00,499.0,WeatherDisplay:10.37,2013-03-23 14:03:00,
2013-03-23 15:08:00,61.1,46.2,29.85,SW,236,6.9,6.9,58,0.00,CLR,,0.00,364.0,WeatherDisplay:10.37,2013-03-23 14:08:00,
2013-03-23 15:13:00,61.2,45.8,29.85,West,271,9.2,9.2,57,0.00,CLR,,0.00,531.0,WeatherDisplay:10.37,2013-03-23 14:13:00,
2013-03-23 15:18:00,61.1,44.8,29.85,NW,314,10.4,10.4,55,0.00,CLR,,0.00,517.0,WeatherDisplay:10.37,2013-03-23 14:18:00,
2013-03-23 15:23:00,60.9,44.1,29.85,WSW,247,10.4,10.4,54,0.00,CLR,,0.00,483.0,WeatherDisplay:10.37,2013-03-23 14:23:00,
2013-03-23 15:28:00,61.3,44.5,29.84,West,263,9.2,9.2,54,0.00,CLR,,0.00,462.0,WeatherDisplay:10.37,2013-03-23 14:28:00,
2013-03-23 15:33:00,61.8,43.5,29.84,WNW,290,10.4,10.4,51,0.00,CLR,,0.00,445.0,WeatherDisplay:10.37,2013-03-23 14:33:00,
2013-03-23 15:38:00,61.9,43.6,29.84,WNW,283,6.9,6.9,51,0.00,CLR,,0.00,417.0,WeatherDisplay:10.37,2013-03-23 14:38:00,
2013-03-23 15:43:00,62.1,42.7,29.84,NW,304,9.2,9.2,49,0.00,CLR,,0.00,378.0,WeatherDisplay:10.37,2013-03-23 14:43:00,
2013-03-23 15:48:00,61.9,43.0,29.84,West,264,8.1,8.1,50,0.00,CLR,,0.00,448.0,WeatherDisplay:10.37,2013-03-23 14:48:00,
2013-03-23 15:53:00,62.2,42.8,29.83,West,269,5.8,5.8,49,0.00,CLR,,0.00,371.0,WeatherDisplay:10.37,2013-03-23 14:53:00,
2013-03-23 15:58:00,62.5,42.0,29.83,WSW,254,7.0,7.0,47,0.00,CLR,,0.00,385.0,WeatherDisplay:10.37,2013-03-23 14:58:00,
2013-03-23 16:04:00,62.6,42.1,29.83,WNW,292,6.9,6.9,47,0.00,CLR,,0.00,346.0,WeatherDisplay:10.37,2013-03-23 15:04:00,
2013-03-23 16:09:00,62.0,41.0,29.83,WNW,290,8.1,8.1,46,0.00,CLR,,0.00,329.0,WeatherDisplay:10.37,2013-03-23 15:09:00,
2013-03-23 16:14:00,62.1,41.1,29.83,SSW,207,6.9,6.9,46,0.00,CLR,,0.00,311.0,WeatherDisplay:10.37,2013-03-23 15:14:00,
2013-03-23 16:19:00,61.9,40.3,29.83,West,267,8.1,8.1,45,0.00,CLR,,0.00,255.0,WeatherDisplay:10.37,2013-03-23 15:19:00,
2013-03-23 16:24:00,62.0,40.4,29.83,WSW,246,9.2,9.2,45,0.00,CLR,,0.00,283.0,WeatherDisplay:10.37,2013-03-23 15:24:00,
2013-03-23 16:29:00,62.1,40.5,29.83,NW,304,8.1,8.1,45,0.00,CLR,,0.00,290.0,WeatherDisplay:10.37,2013-03-23 15:29:00,
2013-03-23 16:34:00,62.1,40.5,29.83,NW,320,8.1,8.1,45,0.00,CLR,,0.00,260.0,WeatherDisplay:10.37,2013-03-23 15:34:00,
2013-03-23 16:39:00,62.1,40.5,29.83,WNW,293,5.8,5.8,45,0.00,CLR,,0.00,209.0,WeatherDisplay:10.37,2013-03-23 15:39:00,
2013-03-23 16:44:00,61.3,39.8,29.83,WNW,298,10.4,10.4,45,0.00,CLR,,0.00,213.0,WeatherDisplay:10.37,2013-03-23 15:44:00,
2013-03-23 16:49:00,61.1,40.7,29.83,West,268,9.0,9.0,47,0.00,FEW,,0.00,216.0,WeatherDisplay:10.37,2013-03-23 15:49:00,
2013-03-23 16:54:00,61.2,40.8,29.83,West,277,10.0,10.0,47,0.00,CLR,,0.00,232.0,WeatherDisplay:10.37,2013-03-23 15:54:00,
2013-03-23 16:59:00,61.1,41.2,29.83,NW,304,9.2,9.2,48,0.00,CLR,,0.00,209.0,WeatherDisplay:10.37,2013-03-23 15:59:00,
2013-03-23 17:04:00,61.2,41.3,29.83,NW,311,9.0,9.0,48,0.00,CLR,,0.00,188.0,WeatherDisplay:10.37,2013-03-23 16:04:00,
2013-03-23 17:09:00,61.1,40.7,29.82,NW,309,10.4,10.4,47,0.00,CLR,,0.00,197.0,WeatherDisplay:10.37,2013-03-23 16:09:00,
2013-03-23 17:14:00,61.3,40.9,29.82,NW,311,8.1,8.1,47,0.00,CLR,,0.00,178.0,WeatherDisplay:10.37,2013-03-23 16:14:00,
2013-03-23 17:19:00,61.5,39.4,29.82,NW,308,9.2,9.2,44,0.00,CLR,,0.00,141.0,WeatherDisplay:10.37,2013-03-23 16:19:00,
2013-03-23 17:24:00,61.7,41.3,29.82,West,275,5.0,5.0,47,0.00,CLR,,0.00,132.0,WeatherDisplay:10.37,2013-03-23 16:24:00,
2013-03-23 17:29:00,61.9,42.0,29.82,NW,313,5.8,5.8,48,0.00,CLR,,0.00,111.0,WeatherDisplay:10.37,2013-03-23 16:29:00,
2013-03-23 17:34:00,61.6,41.7,29.82,WNW,299,5.8,5.8,48,0.00,CLR,,0.00,69.0,WeatherDisplay:10.37,2013-03-23 16:34:00,
2013-03-23 17:39:00,61.4,41.5,29.82,NW,307,5.8,5.8,48,0.00,FEW,,0.00,62.0,WeatherDisplay:10.37,2013-03-23 16:39:00,
2013-03-23 17:44:00,61.2,41.9,29.82,NW,316,4.6,4.8,49,0.00,FEW,,0.00,56.0,WeatherDisplay:10.37,2013-03-23 16:44:00,
2013-03-23 17:49:00,61.1,42.3,29.82,WNW,299,4.6,4.6,50,0.00,SCT,,0.00,40.0,WeatherDisplay:10.37,2013-03-23 16:49:00,
2013-03-23 17:54:00,61.0,42.7,29.82,NNW,327,6.9,6.9,51,0.00,SCT,,0.00,32.0,WeatherDisplay:10.37,2013-03-23 16:54:00,
2013-03-23 17:59:00,60.7,43.0,29.81,WNW,290,5.8,5.8,52,0.00,SCT,,0.00,23.0,WeatherDisplay:10.37,2013-03-23 16:59:00,
2013-03-23 18:04:00,60.5,43.3,29.82,WNW,297,3.5,3.5,53,0.00,SCT,,0.00,16.0,WeatherDisplay:10.37,2013-03-23 17:04:00,
2013-03-23 18:09:00,60.3,43.6,29.82,WNW,295,3.5,3.5,54,0.00,SCT,,0.00,9.0,WeatherDisplay:10.37,2013-03-23 17:09:00,
2013-03-23 18:14:00,60.2,43.5,29.82,WNW,292,2.3,2.3,54,0.00,FEW,,0.00,5.0,WeatherDisplay:10.37,2013-03-23 17:14:00,
2013-03-23 18:19:00,60.1,44.3,29.82,WNW,284,3.5,3.5,56,0.00,,,0.00,0.0,WeatherDisplay:10.37,2013-03-23 17:19:00,
2013-03-23 18:24:00,59.8,44.5,29.82,WNW,297,4.0,4.0,57,0.00,,,0.00,0.0,WeatherDisplay:10.37,2013-03-23 17:24:00,
2013-03-23 18:29:00,59.3,44.5,29.82,WNW,291,5.8,5.8,58,0.00,,,0.00,0.0,WeatherDisplay:10.37,2013-03-23 17:29:00,
2013-03-23 18:34:00,59.0,44.7,29.82,WNW,302,3.5,3.5,59,0.00,,,0.00,0.0,WeatherDisplay:10.37,2013-03-23 17:34:00,
2013-03-23 18:39:00,58.9,45.0,29.82,NW,309,3.5,3.5,60,0.00,,,0.00,0.0,WeatherDisplay:10.37,2013-03-23 17:39:00,
2013-03-23 18:44:00,58.8,44.9,29.82,NW,311,3.5,3.5,60,0.00,,,0.00,0.0,WeatherDisplay:10.37,2013-03-23 17:44:00,
2013-03-23 18:49:00,58.8,45.4,29.81,NNW,329,1.2,1.2,61,0.00,,,0.00,0.0,WeatherDisplay:10.37,2013-03-23 17:49:00,
2013-03-23 18:54:00,58.8,45.4,29.81,WSW,242,1.2,1.2,61,0.00,,,0.00,0.0,WeatherDisplay:10.37,2013-03-23 17:54:00,
2013-03-23 18:59:00,58.6,45.2,29.81,East,79,3.5,3.5,61,0.00,,,0.00,0.0,WeatherDisplay:10.37,2013-03-23 17:59:00,
2013-03-23 19:04:00,58.2,44.8,29.81,ENE,73,3.5,3.5,61,0.00,,,0.00,0.0,WeatherDisplay:10.37,2013-03-23 18:04:00,
2013-03-23 19:09:00,57.9,45.0,29.82,East,81,1.2,1.2,62,0.00,,,0.00,0.0,WeatherDisplay:10.37,2013-03-23 18:09:00,
2013-03-23 19:15:00,57.9,45.4,29.82,East,81,1.2,0.0,63,0.00,,,0.00,0.0,WeatherDisplay:10.37,2013-03-23 18:15:00,
2013-03-23 19:20:00,57.8,45.7,29.82,East,81,0.0,1.0,64,0.00,,,0.00,0.0,WeatherDisplay:10.37,2013-03-23 18:20:00,
2013-03-23 19:25:00,57.7,45.6,29.82,East,81,0.0,1.0,64,0.00,,,0.00,0.0,WeatherDisplay:10.37,2013-03-23 18:25:00,
2013-03-23 19:30:00,57.6,45.5,29.82,East,82,0.0,0.0,64,0.00,,,0.00,0.0,WeatherDisplay:10.37,2013-03-23 18:30:00,
2013-03-23 19:34:00,57.5,45.4,29.82,NE,54,2.3,2.3,64,0.00,,,0.00,0.0,WeatherDisplay:10.37,2013-03-23 18:34:00,
2013-03-23 19:40:00,57.4,44.9,29.82,NE,43,2.0,3.0,63,0.00,,,0.00,0.0,WeatherDisplay:10.37,2013-03-23 18:40:00,
2013-03-23 19:45:00,57.4,44.9,29.82,NNE,18,1.0,3.0,63,0.00,,,0.00,0.0,WeatherDisplay:10.37,2013-03-23 18:45:00,
2013-03-23 19:49:00,57.4,44.1,29.82,North,5,2.3,0.0,61,0.00,,,0.00,0.0,WeatherDisplay:10.37,2013-03-23 18:49:00,
2013-03-23 19:55:00,57.5,44.6,29.82,North,5,0.0,0.0,62,0.00,,,0.00,0.0,WeatherDisplay:10.37,2013-03-23 18:55:00,
2013-03-23 20:00:00,57.4,43.6,29.82,North,5,0.0,1.0,60,0.00,,,0.00,0.0,WeatherDisplay:10.37,2013-03-23 19:00:00,
2013-03-23 20:05:00,57.5,43.7,29.82,North,5,1.0,2.0,60,0.00,,,0.00,0.0,WeatherDisplay:10.37,2013-03-23 19:05:00,
2013-03-23 20:10:00,57.2,43.0,29.82,North,355,2.3,2.3,59,0.00,,,0.00,0.0,WeatherDisplay:10.37,2013-03-23 19:10:00,
2013-03-23 20:15:00,57.1,42.5,29.82,North,0,1.0,3.0,58,0.00,,,0.00,0.0,WeatherDisplay:10.37,2013-03-23 19:15:00,
2013-03-23 20:20:00,57.3,42.2,29.82,NNW,348,3.5,3.5,57,0.00,,,0.00,0.0,WeatherDisplay:10.37,2013-03-23 19:20:00,
2013-03-23 20:25:00,57.5,42.4,29.82,North,355,4.0,4.0,57,0.00,,,0.00,0.0,WeatherDisplay:10.37,2013-03-23 19:25:00,
2013-03-23 20:30:00,57.4,42.3,29.82,North,350,4.6,4.6,57,0.00,,,0.00,0.0,WeatherDisplay:10.37,2013-03-23 19:30:00,
2013-03-23 20:35:00,57.4,42.3,29.82,NNE,18,3.5,3.5,57,0.00,,,0.00,0.0,WeatherDisplay:10.37,2013-03-23 19:35:00,
2013-03-23 20:40:00,57.2,42.5,29.82,North,11,4.6,4.6,58,0.00,,,0.00,0.0,WeatherDisplay:10.37,2013-03-23 19:40:00,
2013-03-23 20:45:00,57.1,42.9,29.82,SW,234,3.5,3.5,59,0.00,,,0.00,0.0,WeatherDisplay:10.37,2013-03-23 19:45:00,
2013-03-23 20:50:00,57.1,42.9,29.81,SW,229,1.2,1.2,59,0.00,,,0.00,0.0,WeatherDisplay:10.37,2013-03-23 19:50:00,
2013-03-23 20:55:00,57.0,42.8,29.81,ENE,63,2.3,2.3,59,0.00,,,0.00,0.0,WeatherDisplay:10.37,2013-03-23 19:55:00,
2013-03-23 21:00:00,56.8,42.6,29.82,ENE,74,1.2,1.2,59,0.00,,,0.00,0.0,WeatherDisplay:10.37,2013-03-23 20:00:00,
2013-03-23 21:05:00,56.6,42.9,29.82,ENE,74,2.3,2.3,60,0.00,,,0.00,0.0,WeatherDisplay:10.37,2013-03-23 20:05:00,
2013-03-23 21:10:00,56.6,43.3,29.82,NNE,32,1.2,1.2,61,0.00,,,0.00,0.0,WeatherDisplay:10.37,2013-03-23 20:10:00,
2013-03-23 21:15:00,56.6,43.7,29.82,NW,323,2.0,2.0,62,0.00,,,0.00,0.0,WeatherDisplay:10.37,2013-03-23 20:15:00,
2013-03-23 21:20:00,56.4,44.0,29.82,NW,323,0.0,0.0,63,0.00,,,0.00,0.0,WeatherDisplay:10.37,2013-03-23 20:20:00,
2013-03-23 21:25:00,56.1,44.1,29.81,NW,323,0.0,0.0,64,0.00,,,0.00,0.0,WeatherDisplay:10.37,2013-03-23 20:25:00,
2013-03-23 21:30:00,55.8,43.8,29.81,NW,323,0.0,0.0,64,0.00,,,0.00,0.0,WeatherDisplay:10.37,2013-03-23 20:30:00,
2013-03-23 21:35:00,55.4,43.4,29.80,WNW,295,1.2,1.2,64,0.00,,,0.00,0.0,WeatherDisplay:10.37,2013-03-23 20:35:00,
2013-03-23 21:40:00,55.1,43.1,29.80,SSW,210,2.3,2.3,64,0.00,,,0.00,0.0,WeatherDisplay:10.37,2013-03-23 20:40:00,
2013-03-23 21:45:00,54.7,43.2,29.80,SE,139,3.5,3.5,65,0.00,,,0.00,0.0,WeatherDisplay:10.37,2013-03-23 20:45:00,
2013-03-23 21:50:00,54.0,42.9,29.80,East,95,7.0,7.0,66,0.00,,,0.00,0.0,WeatherDisplay:10.37,2013-03-23 20:50:00,
2013-03-23 21:55:00,53.4,43.5,29.80,West,281,1.2,1.2,69,0.00,,,0.00,0.0,WeatherDisplay:10.37,2013-03-23 20:55:00,
2013-03-23 22:00:00,53.2,43.3,29.80,SW,235,2.3,2.3,69,0.00,,,0.00,0.0,WeatherDisplay:10.37,2013-03-23 21:00:00,
2013-03-23 22:05:00,53.3,41.0,29.80,WSW,252,4.6,4.6,63,0.00,,,0.00,0.0,WeatherDisplay:10.37,2013-03-23 21:05:00,
2013-03-23 22:10:00,53.9,42.0,29.80,SW,227,0.0,0.0,64,0.00,,,0.00,0.0,WeatherDisplay:10.37,2013-03-23 21:10:00,
2013-03-23 22:15:00,54.1,42.6,29.80,SW,227,3.5,3.5,65,0.00,,,0.00,0.0,WeatherDisplay:10.37,2013-03-23 21:15:00,
2013-03-23 22:20:00,54.3,41.6,29.80,NW,325,2.3,2.3,62,0.00,,,0.00,0.0,WeatherDisplay:10.37,2013-03-23 21:20:00,
2013-03-23 22:25:00,54.6,43.5,29.80,NW,311,3.5,3.5,66,0.00,,,0.00,0.0,WeatherDisplay:10.37,2013-03-23 21:25:00,
2013-03-23 22:30:00,54.1,43.0,29.80,NNW,333,3.5,3.5,66,0.00,,,0.00,0.0,WeatherDisplay:10.37,2013-03-23 21:30:00,
2013-03-23 22:35:00,54.0,42.1,29.80,NW,311,3.5,3.5,64,0.00,,,0.00,0.0,WeatherDisplay:10.37,2013-03-23 21:35:00,
2013-03-23 22:40:00,54.4,41.2,29.80,NNW,336,3.5,3.5,61,0.00,,,0.00,0.0,WeatherDisplay:10.37,2013-03-23 21:40:00,
2013-03-23 22:45:00,55.1,39.2,29.80,North,5,3.5,3.5,55,0.00,,,0.00,0.0,WeatherDisplay:10.37,2013-03-23 21:45:00,
2013-03-23 22:50:00,55.8,37.9,29.80,NE,44,3.5,3.5,51,0.00,,,0.00,0.0,WeatherDisplay:10.37,2013-03-23 21:50:00,
2013-03-23 22:55:00,56.5,38.1,29.80,ESE,103,1.2,1.2,50,0.00,,,0.00,0.0,WeatherDisplay:10.37,2013-03-23 21:55:00,
2013-03-23 23:00:00,56.7,37.7,29.80,East,90,2.3,2.3,49,0.00,,,0.00,0.0,WeatherDisplay:10.37,2013-03-23 22:00:00,
2013-03-23 23:05:00,56.7,38.8,29.80,WSW,244,2.3,2.3,51,0.00,,,0.00,0.0,WeatherDisplay:10.37,2013-03-23 22:05:00,
2013-03-23 23:10:00,55.8,41.7,29.81,SW,220,3.5,3.5,59,0.00,,,0.00,0.0,WeatherDisplay:10.37,2013-03-23 22:10:00,
2013-03-23 23:15:00,55.0,41.8,29.81,SW,232,3.5,3.5,61,0.00,,,0.00,0.0,WeatherDisplay:10.37,2013-03-23 22:15:00,
2013-03-23 23:20:00,54.6,42.7,29.81,West,272,4.0,4.0,64,0.00,,,0.00,0.0,WeatherDisplay:10.37,2013-03-23 22:20:00,
2013-03-23 23:25:00,54.5,42.2,29.81,West,275,2.3,2.3,63,0.00,,,0.00,0.0,WeatherDisplay:10.37,2013-03-23 22:25:00,
2013-03-23 23:30:00,54.7,38.8,29.80,NNW,346,3.5,3.5,55,0.00,,,0.00,0.0,WeatherDisplay:10.37,2013-03-23 22:30:00,
2013-03-23 23:35:00,55.6,37.2,29.80,NE,39,3.5,3.5,50,0.00,,,0.00,0.0,WeatherDisplay:10.37,2013-03-23 22:35:00,
2013-03-23 23:40:00,56.2,38.3,29.80,North,5,0.0,0.0,51,0.00,,,0.00,0.0,WeatherDisplay:10.37,2013-03-23 22:40:00,
2013-03-23 23:45:00,56.2,37.3,29.80,ENE,60,2.3,2.3,49,0.00,,,0.00,0.0,WeatherDisplay:10.37,2013-03-23 22:45:00,
2013-03-23 23:50:00,56.1,37.7,29.80,NNE,28,3.5,3.5,50,0.00,,,0.00,0.0,WeatherDisplay:10.37,2013-03-23 22:50:00,
2013-03-23 23:55:00,56.4,37.5,29.79,NNE,20,3.5,3.5,49,0.00,,,0.00,0.0,WeatherDisplay:10.37,2013-03-23 22:55:00,